Missouri River (Missouri), Rulo (06813500)

StateMissouriLatestUnknown (65800 cfs)
RiverMissouri RiverRatingObservedEstimated
Updated2020-02-25 15:30 (1 hour ago)Flood - The river is flooding. Obstacles can be treacherous or deadly. The river should be avoided at this stage for casual trips and definitely for the inexperienced. Trips should be attempted only with protective gear and equipment.Flood(none)(none)
Discharge65800 cfs (median: 29800 cfs)High - The river is high and potentially dangerous, especially for the young and / or inexperienced. Normal stream obstacles are sometimes difficult to navigate. Extended distances can be attempted, but canoe travel may not be advisable.High(none)(none)
Height12.84 feetGood - Conditions are ideal for a canoe or kayak. Boats typically will drag on fewer than one-quarter of riffles, if at all, and portages are unnecessary or rare. Normal float lengths can be attempted without a problem.Good(none)(none)
TrendRising (rising over 24 hours)Low - River is low but can still be floated. Some riffles are okay but most come with significant dragging and might need a portage. Float lengths should be reduced to accommodate low flow, dragging, and portages.Low(none)(none)
USGSExternal icon USGS Site (External icon Google Maps)Poor - River is too low to float comfortably. Most or all riffles will drag or must be portaged and some obstacles (such as slick shelf rock) cause undue problems. Avoid the river at this stage for casual paddling trips.Poor(none)(none)

Trending Data

Plot Image

Trips for Missouri River (Missouri), Rulo (06813500)

DateStartEndDistanceConditionDischargeHeightFishingDetails

A total of 0 rows are displayed.

Condition Descriptions

Fishing Conditions

Fish Species

Notes

Classic Trip List

The classic River Trips application is still available for use. It is updated with the new system using a data retrofit. It is no longer maintained. The original River Trips application is no longer updated (as of 1 Dec 2016) but can be checked for errors or for the condition of the data before it was converted to the new system.

Gauge Data Table

ObservationHeightDischargeMaximum
Discharge
Minimum
Discharge
Mean
Discharge
P05P10P20P25P50
(Median)
P75P80P90P95
2020-02-25 15:30 12.84 65800 71700 (1983) 12700 (1957) 33600 14100 18400 22500 23200 29800 40900 43500 60800 64400
2020-02-25 14:30 12.83 65700 71700 (1983) 12700 (1957) 33600 14100 18400 22500 23200 29800 40900 43500 60800 64400
2020-02-25 13:30 12.81 65600 71700 (1983) 12700 (1957) 33600 14100 18400 22500 23200 29800 40900 43500 60800 64400
2020-02-25 12:30 12.82 65700 71700 (1983) 12700 (1957) 33600 14100 18400 22500 23200 29800 40900 43500 60800 64400
2020-02-25 11:30 12.79 65500 71700 (1983) 12700 (1957) 33600 14100 18400 22500 23200 29800 40900 43500 60800 64400
2020-02-25 10:30 12.79 65500 71700 (1983) 12700 (1957) 33600 14100 18400 22500 23200 29800 40900 43500 60800 64400
2020-02-25 09:30 12.79 65500 71700 (1983) 12700 (1957) 33600 14100 18400 22500 23200 29800 40900 43500 60800 64400
2020-02-25 08:30 12.77 65400 71700 (1983) 12700 (1957) 33600 14100 18400 22500 23200 29800 40900 43500 60800 64400
2020-02-25 07:30 12.76 65300 71700 (1983) 12700 (1957) 33600 14100 18400 22500 23200 29800 40900 43500 60800 64400
2020-02-25 06:30 12.75 65300 71700 (1983) 12700 (1957) 33600 14100 18400 22500 23200 29800 40900 43500 60800 64400
2020-02-25 05:30 12.74 65200 71700 (1983) 12700 (1957) 33600 14100 18400 22500 23200 29800 40900 43500 60800 64400
2020-02-25 04:30 12.71 65100 71700 (1983) 12700 (1957) 33600 14100 18400 22500 23200 29800 40900 43500 60800 64400
2020-02-25 03:30 12.70 65000 71700 (1983) 12700 (1957) 33600 14100 18400 22500 23200 29800 40900 43500 60800 64400
2020-02-25 02:30 12.68 64900 71700 (1983) 12700 (1957) 33600 14100 18400 22500 23200 29800 40900 43500 60800 64400
2020-02-25 01:30 12.65 64700 71700 (1983) 12700 (1957) 33600 14100 18400 22500 23200 29800 40900 43500 60800 64400
2020-02-25 00:30 12.63 64600 71700 (1983) 12700 (1957) 33600 14100 18400 22500 23200 29800 40900 43500 60800 64400
2020-02-24 23:30 12.60 64400 92600 (1971) 13000 (1967) 34000 14400 18100 21900 22200 29400 39800 42600 58700 73000
2020-02-24 22:30 12.57 64300 92600 (1971) 13000 (1967) 34000 14400 18100 21900 22200 29400 39800 42600 58700 73000
2020-02-24 21:30 12.51 63900 92600 (1971) 13000 (1967) 34000 14400 18100 21900 22200 29400 39800 42600 58700 73000
2020-02-24 20:30 12.48 63800 92600 (1971) 13000 (1967) 34000 14400 18100 21900 22200 29400 39800 42600 58700 73000
2020-02-24 19:30 12.45 63600 92600 (1971) 13000 (1967) 34000 14400 18100 21900 22200 29400 39800 42600 58700 73000
2020-02-24 18:30 12.41 63400 92600 (1971) 13000 (1967) 34000 14400 18100 21900 22200 29400 39800 42600 58700 73000
2020-02-24 17:30 12.38 63200 92600 (1971) 13000 (1967) 34000 14400 18100 21900 22200 29400 39800 42600 58700 73000
2020-02-24 16:30 12.32 62800 92600 (1971) 13000 (1967) 34000 14400 18100 21900 22200 29400 39800 42600 58700 73000
2020-02-24 15:30 12.30 62700 92600 (1971) 13000 (1967) 34000 14400 18100 21900 22200 29400 39800 42600 58700 73000
2020-02-24 14:30 12.25 62400 92600 (1971) 13000 (1967) 34000 14400 18100 21900 22200 29400 39800 42600 58700 73000
2020-02-24 13:30 12.21 62200 92600 (1971) 13000 (1967) 34000 14400 18100 21900 22200 29400 39800 42600 58700 73000
2020-02-24 12:30 12.17 62000 92600 (1971) 13000 (1967) 34000 14400 18100 21900 22200 29400 39800 42600 58700 73000
2020-02-24 11:30 12.12 61700 92600 (1971) 13000 (1967) 34000 14400 18100 21900 22200 29400 39800 42600 58700 73000
2020-02-24 10:30 12.08 61500 92600 (1971) 13000 (1967) 34000 14400 18100 21900 22200 29400 39800 42600 58700 73000
2020-02-24 09:30 12.05 61300 92600 (1971) 13000 (1967) 34000 14400 18100 21900 22200 29400 39800 42600 58700 73000
2020-02-24 08:30 12.03 61200 92600 (1971) 13000 (1967) 34000 14400 18100 21900 22200 29400 39800 42600 58700 73000
2020-02-24 07:30 11.99 61000 92600 (1971) 13000 (1967) 34000 14400 18100 21900 22200 29400 39800 42600 58700 73000
2020-02-24 06:30 11.95 60800 92600 (1971) 13000 (1967) 34000 14400 18100 21900 22200 29400 39800 42600 58700 73000
2020-02-24 05:30 11.92 60600 92600 (1971) 13000 (1967) 34000 14400 18100 21900 22200 29400 39800 42600 58700 73000
2020-02-24 04:30 11.91 60500 92600 (1971) 13000 (1967) 34000 14400 18100 21900 22200 29400 39800 42600 58700 73000
2020-02-24 03:30 11.89 60400 92600 (1971) 13000 (1967) 34000 14400 18100 21900 22200 29400 39800 42600 58700 73000
2020-02-24 02:30 11.85 60200 92600 (1971) 13000 (1967) 34000 14400 18100 21900 22200 29400 39800 42600 58700 73000
2020-02-24 01:30 11.82 60000 92600 (1971) 13000 (1967) 34000 14400 18100 21900 22200 29400 39800 42600 58700 73000
2020-02-24 00:30 11.79 59900 92600 (1971) 13000 (1967) 34000 14400 18100 21900 22200 29400 39800 42600 58700 73000
2020-02-23 23:30 11.78 59800 116000 (1971) 13200 (1964) 34000 15000 18200 21300 22200 28200 39900 42200 64300 72300
2020-02-23 22:30 11.75 59600 116000 (1971) 13200 (1964) 34000 15000 18200 21300 22200 28200 39900 42200 64300 72300
2020-02-23 21:30 11.72 59500 116000 (1971) 13200 (1964) 34000 15000 18200 21300 22200 28200 39900 42200 64300 72300
2020-02-23 20:30 11.69 59300 116000 (1971) 13200 (1964) 34000 15000 18200 21300 22200 28200 39900 42200 64300 72300
2020-02-23 19:30 11.68 59300 116000 (1971) 13200 (1964) 34000 15000 18200 21300 22200 28200 39900 42200 64300 72300
2020-02-23 18:30 11.66 59200 116000 (1971) 13200 (1964) 34000 15000 18200 21300 22200 28200 39900 42200 64300 72300
2020-02-23 17:30 11.65 59100 116000 (1971) 13200 (1964) 34000 15000 18200 21300 22200 28200 39900 42200 64300 72300
2020-02-23 16:30 11.64 59100 116000 (1971) 13200 (1964) 34000 15000 18200 21300 22200 28200 39900 42200 64300 72300
2020-02-23 15:30 11.62 59000 116000 (1971) 13200 (1964) 34000 15000 18200 21300 22200 28200 39900 42200 64300 72300
2020-02-23 14:30 11.62 59000 116000 (1971) 13200 (1964) 34000 15000 18200 21300 22200 28200 39900 42200 64300 72300
2020-02-23 13:30 11.60 58900 116000 (1971) 13200 (1964) 34000 15000 18200 21300 22200 28200 39900 42200 64300 72300
2020-02-23 12:30 11.60 58900 116000 (1971) 13200 (1964) 34000 15000 18200 21300 22200 28200 39900 42200 64300 72300
2020-02-23 11:30 11.58 58800 116000 (1971) 13200 (1964) 34000 15000 18200 21300 22200 28200 39900 42200 64300 72300
2020-02-23 10:30 11.57 58700 116000 (1971) 13200 (1964) 34000 15000 18200 21300 22200 28200 39900 42200 64300 72300
2020-02-23 09:30 11.56 58700 116000 (1971) 13200 (1964) 34000 15000 18200 21300 22200 28200 39900 42200 64300 72300
2020-02-23 08:30 11.56 58700 116000 (1971) 13200 (1964) 34000 15000 18200 21300 22200 28200 39900 42200 64300 72300
2020-02-23 07:30 11.55 58600 116000 (1971) 13200 (1964) 34000 15000 18200 21300 22200 28200 39900 42200 64300 72300
2020-02-23 06:30 11.52 58500 116000 (1971) 13200 (1964) 34000 15000 18200 21300 22200 28200 39900 42200 64300 72300
2020-02-23 05:30 11.50 58400 116000 (1971) 13200 (1964) 34000 15000 18200 21300 22200 28200 39900 42200 64300 72300
2020-02-23 04:30 11.51 58400 116000 (1971) 13200 (1964) 34000 15000 18200 21300 22200 28200 39900 42200 64300 72300
2020-02-23 03:30 11.48 58200 116000 (1971) 13200 (1964) 34000 15000 18200 21300 22200 28200 39900 42200 64300 72300
2020-02-23 02:30 11.46 58100 116000 (1971) 13200 (1964) 34000 15000 18200 21300 22200 28200 39900 42200 64300 72300
2020-02-23 01:30 11.47 58200 116000 (1971) 13200 (1964) 34000 15000 18200 21300 22200 28200 39900 42200 64300 72300
2020-02-23 00:30 11.44 58000 116000 (1971) 13200 (1964) 34000 15000 18200 21300 22200 28200 39900 42200 64300 72300
2020-02-22 23:30 11.47 58200 119000 (1971) 13600 (1964) 33800 15100 16800 21000 22500 27700 40200 43100 62000 76200
2020-02-22 22:30 11.49 58300 119000 (1971) 13600 (1964) 33800 15100 16800 21000 22500 27700 40200 43100 62000 76200
2020-02-22 21:30 11.49 58300 119000 (1971) 13600 (1964) 33800 15100 16800 21000 22500 27700 40200 43100 62000 76200
2020-02-22 20:30 11.48 58200 119000 (1971) 13600 (1964) 33800 15100 16800 21000 22500 27700 40200 43100 62000 76200
2020-02-22 19:30 11.49 58300 119000 (1971) 13600 (1964) 33800 15100 16800 21000 22500 27700 40200 43100 62000 76200
2020-02-22 18:30 11.49 58300 119000 (1971) 13600 (1964) 33800 15100 16800 21000 22500 27700 40200 43100 62000 76200
2020-02-22 17:30 11.49 58300 119000 (1971) 13600 (1964) 33800 15100 16800 21000 22500 27700 40200 43100 62000 76200
2020-02-22 16:30 11.49 58300 119000 (1971) 13600 (1964) 33800 15100 16800 21000 22500 27700 40200 43100 62000 76200
2020-02-22 15:30 11.49 58300 119000 (1971) 13600 (1964) 33800 15100 16800 21000 22500 27700 40200 43100 62000 76200
2020-02-22 14:30 11.52 58500 119000 (1971) 13600 (1964) 33800 15100 16800 21000 22500 27700 40200 43100 62000 76200
2020-02-22 13:30 11.51 58400 119000 (1971) 13600 (1964) 33800 15100 16800 21000 22500 27700 40200 43100 62000 76200
2020-02-22 12:30 11.54 58600 119000 (1971) 13600 (1964) 33800 15100 16800 21000 22500 27700 40200 43100 62000 76200
2020-02-22 11:30 11.56 58700 119000 (1971) 13600 (1964) 33800 15100 16800 21000 22500 27700 40200 43100 62000 76200
2020-02-22 10:30 11.57 58700 119000 (1971) 13600 (1964) 33800 15100 16800 21000 22500 27700 40200 43100 62000 76200
2020-02-22 09:30 11.57 58700 119000 (1971) 13600 (1964) 33800 15100 16800 21000 22500 27700 40200 43100 62000 76200
2020-02-22 08:30 11.60 58900 119000 (1971) 13600 (1964) 33800 15100 16800 21000 22500 27700 40200 43100 62000 76200
2020-02-22 07:30 11.64 59100 119000 (1971) 13600 (1964) 33800 15100 16800 21000 22500 27700 40200 43100 62000 76200
2020-02-22 06:30 11.68 59300 119000 (1971) 13600 (1964) 33800 15100 16800 21000 22500 27700 40200 43100 62000 76200
2020-02-22 05:30 11.71 59400 119000 (1971) 13600 (1964) 33800 15100 16800 21000 22500 27700 40200 43100 62000 76200
2020-02-22 04:30 11.76 59700 119000 (1971) 13600 (1964) 33800 15100 16800 21000 22500 27700 40200 43100 62000 76200
2020-02-22 03:30 11.78 59800 119000 (1971) 13600 (1964) 33800 15100 16800 21000 22500 27700 40200 43100 62000 76200
2020-02-22 02:30 11.85 60200 119000 (1971) 13600 (1964) 33800 15100 16800 21000 22500 27700 40200 43100 62000 76200
2020-02-22 01:30 11.89 60400 119000 (1971) 13600 (1964) 33800 15100 16800 21000 22500 27700 40200 43100 62000 76200
2020-02-22 00:30 11.92 60600 119000 (1971) 13600 (1964) 33800 15100 16800 21000 22500 27700 40200 43100 62000 76200
2020-02-21 23:30 11.93 60600 118000 (1971) 9000 (1958) 33800 15200 16500 21000 23100 28000 37800 43600 64000 76700
2020-02-21 22:30 11.98 60900 118000 (1971) 9000 (1958) 33800 15200 16500 21000 23100 28000 37800 43600 64000 76700
2020-02-21 21:30 12.02 61100 118000 (1971) 9000 (1958) 33800 15200 16500 21000 23100 28000 37800 43600 64000 76700
2020-02-21 20:30 12.06 61400 118000 (1971) 9000 (1958) 33800 15200 16500 21000 23100 28000 37800 43600 64000 76700
2020-02-21 19:30 12.08 61500 118000 (1971) 9000 (1958) 33800 15200 16500 21000 23100 28000 37800 43600 64000 76700
2020-02-21 18:30 12.12 61700 118000 (1971) 9000 (1958) 33800 15200 16500 21000 23100 28000 37800 43600 64000 76700
2020-02-21 17:30 12.15 61900 118000 (1971) 9000 (1958) 33800 15200 16500 21000 23100 28000 37800 43600 64000 76700
2020-02-21 16:30 12.18 62100 118000 (1971) 9000 (1958) 33800 15200 16500 21000 23100 28000 37800 43600 64000 76700
2020-02-21 15:30 12.21 62200 118000 (1971) 9000 (1958) 33800 15200 16500 21000 23100 28000 37800 43600 64000 76700
2020-02-21 14:30 12.23 62300 118000 (1971) 9000 (1958) 33800 15200 16500 21000 23100 28000 37800 43600 64000 76700
2020-02-21 13:30 12.28 62600 118000 (1971) 9000 (1958) 33800 15200 16500 21000 23100 28000 37800 43600 64000 76700
2020-02-21 12:30 12.30 61800 118000 (1971) 9000 (1958) 33800 15200 16500 21000 23100 28000 37800 43600 64000 76700
2020-02-21 11:30 12.36 62100 118000 (1971) 9000 (1958) 33800 15200 16500 21000 23100 28000 37800 43600 64000 76700
2020-02-21 10:30 12.40 62300 118000 (1971) 9000 (1958) 33800 15200 16500 21000 23100 28000 37800 43600 64000 76700
2020-02-21 09:30 12.45 62600 118000 (1971) 9000 (1958) 33800 15200 16500 21000 23100 28000 37800 43600 64000 76700
2020-02-21 08:30 12.50 62900 118000 (1971) 9000 (1958) 33800 15200 16500 21000 23100 28000 37800 43600 64000 76700
2020-02-21 07:30 12.54 63100 118000 (1971) 9000 (1958) 33800 15200 16500 21000 23100 28000 37800 43600 64000 76700
2020-02-21 06:30 12.59 63400 118000 (1971) 9000 (1958) 33800 15200 16500 21000 23100 28000 37800 43600 64000 76700
2020-02-21 05:30 12.62 63600 118000 (1971) 9000 (1958) 33800 15200 16500 21000 23100 28000 37800 43600 64000 76700
2020-02-21 04:30 12.66 63800 118000 (1971) 9000 (1958) 33800 15200 16500 21000 23100 28000 37800 43600 64000 76700
2020-02-21 03:30 12.71 64100 118000 (1971) 9000 (1958) 33800 15200 16500 21000 23100 28000 37800 43600 64000 76700
2020-02-21 02:30 12.74 64300 118000 (1971) 9000 (1958) 33800 15200 16500 21000 23100 28000 37800 43600 64000 76700
2020-02-21 01:30 12.75 64300 118000 (1971) 9000 (1958) 33800 15200 16500 21000 23100 28000 37800 43600 64000 76700
2020-02-21 00:30 12.79 64500 118000 (1971) 9000 (1958) 33800 15200 16500 21000 23100 28000 37800 43600 64000 76700
2020-02-20 23:30 12.80 64600 90000 (1971) 8000 (1958) 32300 14700 16100 20100 21400 27300 36400 42800 58200 76500
2020-02-20 22:30 12.81 64700 90000 (1971) 8000 (1958) 32300 14700 16100 20100 21400 27300 36400 42800 58200 76500
2020-02-20 21:30 12.84 64800 90000 (1971) 8000 (1958) 32300 14700 16100 20100 21400 27300 36400 42800 58200 76500
2020-02-20 20:30 12.84 64800 90000 (1971) 8000 (1958) 32300 14700 16100 20100 21400 27300 36400 42800 58200 76500
2020-02-20 19:30 12.88 65100 90000 (1971) 8000 (1958) 32300 14700 16100 20100 21400 27300 36400 42800 58200 76500
2020-02-20 18:30 12.89 65100 90000 (1971) 8000 (1958) 32300 14700 16100 20100 21400 27300 36400 42800 58200 76500
2020-02-20 17:30 12.91 65200 90000 (1971) 8000 (1958) 32300 14700 16100 20100 21400 27300 36400 42800 58200 76500
2020-02-20 16:30 12.93 65300 90000 (1971) 8000 (1958) 32300 14700 16100 20100 21400 27300 36400 42800 58200 76500
2020-02-20 15:30 12.96 65500 90000 (1971) 8000 (1958) 32300 14700 16100 20100 21400 27300 36400 42800 58200 76500
2020-02-20 14:30 12.98 65600 90000 (1971) 8000 (1958) 32300 14700 16100 20100 21400 27300 36400 42800 58200 76500
2020-02-20 13:30 13.00 65700 90000 (1971) 8000 (1958) 32300 14700 16100 20100 21400 27300 36400 42800 58200 76500
2020-02-20 12:30 13.00 65700 90000 (1971) 8000 (1958) 32300 14700 16100 20100 21400 27300 36400 42800 58200 76500
2020-02-20 11:30 13.03 65900 90000 (1971) 8000 (1958) 32300 14700 16100 20100 21400 27300 36400 42800 58200 76500
2020-02-20 10:30 13.04 66000 90000 (1971) 8000 (1958) 32300 14700 16100 20100 21400 27300 36400 42800 58200 76500
2020-02-20 09:30 13.05 66000 90000 (1971) 8000 (1958) 32300 14700 16100 20100 21400 27300 36400 42800 58200 76500
2020-02-20 08:30 13.06 66100 90000 (1971) 8000 (1958) 32300 14700 16100 20100 21400 27300 36400 42800 58200 76500
2020-02-20 07:30 13.07 66100 90000 (1971) 8000 (1958) 32300 14700 16100 20100 21400 27300 36400 42800 58200 76500
2020-02-20 06:30 13.07 66100 90000 (1971) 8000 (1958) 32300 14700 16100 20100 21400 27300 36400 42800 58200 76500
2020-02-20 05:30 13.06 66100 90000 (1971) 8000 (1958) 32300 14700 16100 20100 21400 27300 36400 42800 58200 76500
2020-02-20 04:30 13.06 66100 90000 (1971) 8000 (1958) 32300 14700 16100 20100 21400 27300 36400 42800 58200 76500
2020-02-20 03:30 13.07 66100 90000 (1971) 8000 (1958) 32300 14700 16100 20100 21400 27300 36400 42800 58200 76500
2020-02-20 02:30 13.06 66100 90000 (1971) 8000 (1958) 32300 14700 16100 20100 21400 27300 36400 42800 58200 76500
2020-02-20 01:30 13.02 65900 90000 (1971) 8000 (1958) 32300 14700 16100 20100 21400 27300 36400 42800 58200 76500
2020-02-20 00:30 13.00 65700 90000 (1971) 8000 (1958) 32300 14700 16100 20100 21400 27300 36400 42800 58200 76500
2020-02-19 23:30 12.97 65600 77200 (2011) 8000 (1958) 30500 14800 16100 20400 21500 27500 35800 42400 49400 64600
2020-02-19 22:30 12.92 65300 77200 (2011) 8000 (1958) 30500 14800 16100 20400 21500 27500 35800 42400 49400 64600
2020-02-19 21:30 12.90 65200 77200 (2011) 8000 (1958) 30500 14800 16100 20400 21500 27500 35800 42400 49400 64600
2020-02-19 20:30 12.86 64900 77200 (2011) 8000 (1958) 30500 14800 16100 20400 21500 27500 35800 42400 49400 64600
2020-02-19 19:30 12.81 64700 77200 (2011) 8000 (1958) 30500 14800 16100 20400 21500 27500 35800 42400 49400 64600
2020-02-19 18:30 12.75 64300 77200 (2011) 8000 (1958) 30500 14800 16100 20400 21500 27500 35800 42400 49400 64600
2020-02-19 17:30 12.73 64200 77200 (2011) 8000 (1958) 30500 14800 16100 20400 21500 27500 35800 42400 49400 64600
2020-02-19 16:30 12.71 64100 77200 (2011) 8000 (1958) 30500 14800 16100 20400 21500 27500 35800 42400 49400 64600
2020-02-19 15:30 12.63 63600 77200 (2011) 8000 (1958) 30500 14800 16100 20400 21500 27500 35800 42400 49400 64600
2020-02-19 14:30 12.60 63500 77200 (2011) 8000 (1958) 30500 14800 16100 20400 21500 27500 35800 42400 49400 64600
2020-02-19 13:30 12.58 63400 77200 (2011) 8000 (1958) 30500 14800 16100 20400 21500 27500 35800 42400 49400 64600
2020-02-19 12:30 12.53 63100 77200 (2011) 8000 (1958) 30500 14800 16100 20400 21500 27500 35800 42400 49400 64600
2020-02-19 11:30 12.50 62900 77200 (2011) 8000 (1958) 30500 14800 16100 20400 21500 27500 35800 42400 49400 64600
2020-02-19 10:30 12.42 62400 77200 (2011) 8000 (1958) 30500 14800 16100 20400 21500 27500 35800 42400 49400 64600
2020-02-19 09:30 12.39 62300 77200 (2011) 8000 (1958) 30500 14800 16100 20400 21500 27500 35800 42400 49400 64600
2020-02-19 08:30 12.35 62100 77200 (2011) 8000 (1958) 30500 14800 16100 20400 21500 27500 35800 42400 49400 64600
2020-02-19 07:30 12.33 61900 77200 (2011) 8000 (1958) 30500 14800 16100 20400 21500 27500 35800 42400 49400 64600
2020-02-19 06:30 12.28 61700 77200 (2011) 8000 (1958) 30500 14800 16100 20400 21500 27500 35800 42400 49400 64600
2020-02-19 05:30 12.24 61400 77200 (2011) 8000 (1958) 30500 14800 16100 20400 21500 27500 35800 42400 49400 64600
2020-02-19 04:30 12.20 61200 77200 (2011) 8000 (1958) 30500 14800 16100 20400 21500 27500 35800 42400 49400 64600
2020-02-19 03:30 12.15 60900 77200 (2011) 8000 (1958) 30500 14800 16100 20400 21500 27500 35800 42400 49400 64600
2020-02-19 02:30 12.11 60700 77200 (2011) 8000 (1958) 30500 14800 16100 20400 21500 27500 35800 42400 49400 64600
2020-02-19 01:30 12.08 60500 77200 (2011) 8000 (1958) 30500 14800 16100 20400 21500 27500 35800 42400 49400 64600
2020-02-19 00:30 12.07 60500 77200 (2011) 8000 (1958) 30500 14800 16100 20400 21500 27500 35800 42400 49400 64600
2020-02-18 23:30 12.05 60400 77300 (2011) 8000 (1958) 29400 14700 15600 20500 21000 27500 35000 36800 45900 55000
2020-02-18 22:30 12.01 60100 77300 (2011) 8000 (1958) 29400 14700 15600 20500 21000 27500 35000 36800 45900 55000
2020-02-18 21:30 12.00 60100 77300 (2011) 8000 (1958) 29400 14700 15600 20500 21000 27500 35000 36800 45900 55000
2020-02-18 20:30 12.01 60100 77300 (2011) 8000 (1958) 29400 14700 15600 20500 21000 27500 35000 36800 45900 55000
2020-02-18 19:30 11.98 60000 77300 (2011) 8000 (1958) 29400 14700 15600 20500 21000 27500 35000 36800 45900 55000
2020-02-18 18:30 11.99 60000 77300 (2011) 8000 (1958) 29400 14700 15600 20500 21000 27500 35000 36800 45900 55000
2020-02-18 17:30 12.00 60100 77300 (2011) 8000 (1958) 29400 14700 15600 20500 21000 27500 35000 36800 45900 55000
2020-02-18 16:30 12.00 60100 77300 (2011) 8000 (1958) 29400 14700 15600 20500 21000 27500 35000 36800 45900 55000
2020-02-18 15:30 11.98 60000 77300 (2011) 8000 (1958) 29400 14700 15600 20500 21000 27500 35000 36800 45900 55000
2020-02-18 14:30 11.98 60000 77300 (2011) 8000 (1958) 29400 14700 15600 20500 21000 27500 35000 36800 45900 55000
2020-02-18 13:30 11.97 59900 77300 (2011) 8000 (1958) 29400 14700 15600 20500 21000 27500 35000 36800 45900 55000
2020-02-18 12:30 11.97 59900 77300 (2011) 8000 (1958) 29400 14700 15600 20500 21000 27500 35000 36800 45900 55000
2020-02-18 11:30 11.98 60000 77300 (2011) 8000 (1958) 29400 14700 15600 20500 21000 27500 35000 36800 45900 55000
2020-02-18 10:30 11.96 59900 77300 (2011) 8000 (1958) 29400 14700 15600 20500 21000 27500 35000 36800 45900 55000
2020-02-18 09:30 11.97 59900 77300 (2011) 8000 (1958) 29400 14700 15600 20500 21000 27500 35000 36800 45900 55000
2020-02-18 08:30 11.97 59900 77300 (2011) 8000 (1958) 29400 14700 15600 20500 21000 27500 35000 36800 45900 55000
2020-02-18 07:30 11.96 59900 77300 (2011) 8000 (1958) 29400 14700 15600 20500 21000 27500 35000 36800 45900 55000
2020-02-18 06:30 11.96 59900 77300 (2011) 8000 (1958) 29400 14700 15600 20500 21000 27500 35000 36800 45900 55000
2020-02-18 05:30 11.97 59900 77300 (2011) 8000 (1958) 29400 14700 15600 20500 21000 27500 35000 36800 45900 55000
2020-02-18 04:30 11.95 59800 77300 (2011) 8000 (1958) 29400 14700 15600 20500 21000 27500 35000 36800 45900 55000
2020-02-18 03:30 11.94 59800 77300 (2011) 8000 (1958) 29400 14700 15600 20500 21000 27500 35000 36800 45900 55000
2020-02-18 02:30 11.92 59600 77300 (2011) 8000 (1958) 29400 14700 15600 20500 21000 27500 35000 36800 45900 55000
2020-02-18 01:30 11.91 59600 77300 (2011) 8000 (1958) 29400 14700 15600 20500 21000 27500 35000 36800 45900 55000
2020-02-18 00:30 11.87 59400 77300 (2011) 8000 (1958) 29400 14700 15600 20500 21000 27500 35000 36800 45900 55000

A total of 184 rows are displayed for years 1953 through 2019.